Terminal Aerodrome Forecast
Issued by NWS Blacksburg, VA

Home | Current Version | Previous Version | Text Only | Print | Product List | Glossary On
Versions: 1 2 3 4 5 6 7 8 9 10 11 12 13 14
000
FTUS41 KRNK 231739
TAFDAN
TAF
KDAN 231739Z 2318/2418 13011KT P6SM SCT015 OVC040 WS020/17045KT
      TEMPO 2320/2324 3SM -RA BR OVC010
     FM240000 14008KT 1SM +SHRA OVC025 WS020/16040KT
     FM240300 17009KT 3SM SHRA OVC050
     FM240600 23005KT P6SM BKN050=

USA.gov is the U.S. government's official web portal to all federal, state and local government web resources and services.